sensor_id;sensor_type;location;lat;lon;timestamp;pressure;altitude;pressure_sealevel;temperature;humidity
13027;BME280;6580;42.680;23.324;2023-04-16T00:02:24;94720.47;;;13.84;67.61
13027;BME280;6580;42.680;23.324;2023-04-16T00:05:10;94716.63;;;13.72;69.04
13027;BME280;6580;42.680;23.324;2023-04-16T00:07:56;94722.75;;;13.51;70.33
13027;BME280;6580;42.680;23.324;2023-04-16T00:10:41;94720.88;;;13.31;71.50
13027;BME280;6580;42.680;23.324;2023-04-16T00:13:31;94712.72;;;13.39;71.61
13027;BME280;6580;42.680;23.324;2023-04-16T00:16:16;94721.09;;;13.50;71.68
13027;BME280;6580;42.680;23.324;2023-04-16T00:19:02;94718.53;;;13.42;71.77
13027;BME280;6580;42.680;23.324;2023-04-16T00:21:47;94712.66;;;13.32;72.94
13027;BME280;6580;42.680;23.324;2023-04-16T00:24:33;94717.00;;;13.19;74.29
13027;BME280;6580;42.680;23.324;2023-04-16T00:27:19;94710.72;;;13.26;74.14
13027;BME280;6580;42.680;23.324;2023-04-16T00:30:08;94720.22;;;13.15;74.92
13027;BME280;6580;42.680;23.324;2023-04-16T00:32:53;94716.31;;;12.88;77.10
13027;BME280;6580;42.680;23.324;2023-04-16T00:35:39;94716.09;;;12.98;76.88
13027;BME280;6580;42.680;23.324;2023-04-16T00:38:24;94712.50;;;12.91;77.56
13027;BME280;6580;42.680;23.324;2023-04-16T00:41:12;94721.13;;;12.78;78.75
13027;BME280;6580;42.680;23.324;2023-04-16T00:43:58;94713.88;;;13.01;76.20
13027;BME280;6580;42.680;23.324;2023-04-16T00:46:45;94719.13;;;12.95;77.88
13027;BME280;6580;42.680;23.324;2023-04-16T00:49:31;94714.88;;;12.86;79.10
13027;BME280;6580;42.680;23.324;2023-04-16T00:52:16;94709.31;;;12.87;79.06
13027;BME280;6580;42.680;23.324;2023-04-16T00:55:02;94714.41;;;12.68;77.28
13027;BME280;6580;42.680;23.324;2023-04-16T00:57:47;94722.97;;;12.78;74.17
13027;BME280;6580;42.680;23.324;2023-04-16T01:00:35;94711.78;;;12.60;73.99
13027;BME280;6580;42.680;23.324;2023-04-16T01:03:22;94717.59;;;12.78;71.20
13027;BME280;6580;42.680;23.324;2023-04-16T01:06:08;94705.53;;;12.53;68.77
13027;BME280;6580;42.680;23.324;2023-04-16T01:08:54;94712.09;;;12.65;68.38
13027;BME280;6580;42.680;23.324;2023-04-16T01:11:40;94710.88;;;12.53;68.40
13027;BME280;6580;42.680;23.324;2023-04-16T01:14:25;94715.47;;;12.59;67.70
13027;BME280;6580;42.680;23.324;2023-04-16T01:17:11;94714.56;;;12.52;64.71
13027;BME280;6580;42.680;23.324;2023-04-16T01:19:59;94696.66;;;12.38;63.94
13027;BME280;6580;42.680;23.324;2023-04-16T01:22:46;94719.72;;;12.53;64.32
13027;BME280;6580;42.680;23.324;2023-04-16T01:25:31;94721.06;;;12.49;65.39
13027;BME280;6580;42.680;23.324;2023-04-16T01:28:17;94717.00;;;12.39;65.45
13027;BME280;6580;42.680;23.324;2023-04-16T01:31:02;94713.22;;;12.33;66.06
13027;BME280;6580;42.680;23.324;2023-04-16T01:33:48;94717.09;;;12.31;65.51
13027;BME280;6580;42.680;23.324;2023-04-16T01:36:34;94710.75;;;12.32;64.33
13027;BME280;6580;42.680;23.324;2023-04-16T01:39:20;94709.91;;;12.31;64.83
13027;BME280;6580;42.680;23.324;2023-04-16T01:42:06;94707.31;;;12.23;64.47
13027;BME280;6580;42.680;23.324;2023-04-16T01:44:52;94696.78;;;12.08;64.60
13027;BME280;6580;42.680;23.324;2023-04-16T01:47:37;94698.72;;;12.13;65.49
13027;BME280;6580;42.680;23.324;2023-04-16T01:50:23;94693.91;;;12.09;68.96
13027;BME280;6580;42.680;23.324;2023-04-16T01:53:09;94691.94;;;11.89;71.13
13027;BME280;6580;42.680;23.324;2023-04-16T01:55:58;94698.75;;;11.91;70.25
13027;BME280;6580;42.680;23.324;2023-04-16T01:58:44;94689.56;;;11.71;72.17
13027;BME280;6580;42.680;23.324;2023-04-16T02:01:30;94694.53;;;11.74;72.35
13027;BME280;6580;42.680;23.324;2023-04-16T02:04:15;94696.53;;;11.72;73.28
13027;BME280;6580;42.680;23.324;2023-04-16T02:07:01;94696.38;;;11.96;73.45
13027;BME280;6580;42.680;23.324;2023-04-16T02:09:47;94704.84;;;12.00;74.05
13027;BME280;6580;42.680;23.324;2023-04-16T02:12:34;94699.53;;;11.77;75.65
13027;BME280;6580;42.680;23.324;2023-04-16T02:15:19;94702.63;;;12.03;74.29
13027;BME280;6580;42.680;23.324;2023-04-16T02:18:05;94697.25;;;12.11;72.99
13027;BME280;6580;42.680;23.324;2023-04-16T02:20:50;94693.22;;;12.15;71.73
13027;BME280;6580;42.680;23.324;2023-04-16T02:23:36;94681.53;;;12.16;71.05
13027;BME280;6580;42.680;23.324;2023-04-16T02:26:23;94691.75;;;12.27;68.24
13027;BME280;6580;42.680;23.324;2023-04-16T02:29:11;94679.22;;;12.13;68.84
13027;BME280;6580;42.680;23.324;2023-04-16T02:31:56;94690.59;;;12.07;70.48
13027;BME280;6580;42.680;23.324;2023-04-16T02:34:42;94679.88;;;11.93;71.09
13027;BME280;6580;42.680;23.324;2023-04-16T02:37:28;94693.81;;;12.03;70.46
13027;BME280;6580;42.680;23.324;2023-04-16T02:40:15;94690.91;;;12.12;70.70
13027;BME280;6580;42.680;23.324;2023-04-16T02:43:00;94683.59;;;12.06;70.38
13027;BME280;6580;42.680;23.324;2023-04-16T02:45:47;94687.34;;;11.97;69.97
13027;BME280;6580;42.680;23.324;2023-04-16T02:48:32;94675.53;;;12.14;66.92
13027;BME280;6580;42.680;23.324;2023-04-16T02:51:17;94682.69;;;11.99;66.68
13027;BME280;6580;42.680;23.324;2023-04-16T02:54:03;94679.88;;;11.93;66.67
13027;BME280;6580;42.680;23.324;2023-04-16T02:56:48;94679.50;;;11.81;67.36
13027;BME280;6580;42.680;23.324;2023-04-16T02:59:34;94677.50;;;11.98;67.05
13027;BME280;6580;42.680;23.324;2023-04-16T03:02:25;94677.69;;;11.96;67.36
13027;BME280;6580;42.680;23.324;2023-04-16T03:05:10;94680.72;;;11.93;68.44
13027;BME280;6580;42.680;23.324;2023-04-16T03:07:55;94674.72;;;11.91;68.48
13027;BME280;6580;42.680;23.324;2023-04-16T03:10:41;94674.28;;;12.02;68.65
13027;BME280;6580;42.680;23.324;2023-04-16T03:13:26;94676.34;;;12.00;68.09
13027;BME280;6580;42.680;23.324;2023-04-16T03:16:12;94676.13;;;12.02;68.57
13027;BME280;6580;42.680;23.324;2023-04-16T03:19:00;94693.97;;;12.01;68.54
13027;BME280;6580;42.680;23.324;2023-04-16T03:21:46;94683.03;;;11.96;69.53
13027;BME280;6580;42.680;23.324;2023-04-16T03:24:32;94690.72;;;11.91;70.03
13027;BME280;6580;42.680;23.324;2023-04-16T03:27:17;94684.28;;;11.86;70.44
13027;BME280;6580;42.680;23.324;2023-04-16T03:30:04;94688.59;;;11.87;70.86
13027;BME280;6580;42.680;23.324;2023-04-16T03:32:50;94673.91;;;11.68;71.17
13027;BME280;6580;42.680;23.324;2023-04-16T03:35:37;94684.19;;;11.94;70.34
13027;BME280;6580;42.680;23.324;2023-04-16T03:38:23;94698.44;;;11.86;70.01
13027;BME280;6580;42.680;23.324;2023-04-16T03:41:09;94694.31;;;11.84;69.35
13027;BME280;6580;42.680;23.324;2023-04-16T03:43:55;94693.66;;;11.59;70.29
13027;BME280;6580;42.680;23.324;2023-04-16T03:46:40;94692.75;;;11.89;72.02
13027;BME280;6580;42.680;23.324;2023-04-16T03:49:26;94694.34;;;11.76;71.46
13027;BME280;6580;42.680;23.324;2023-04-16T03:52:12;94702.66;;;11.58;72.47
13027;BME280;6580;42.680;23.324;2023-04-16T03:54:58;94694.19;;;11.55;73.61
13027;BME280;6580;42.680;23.324;2023-04-16T03:57:44;94701.09;;;11.64;73.59
13027;BME280;6580;42.680;23.324;2023-04-16T04:00:30;94695.75;;;11.33;74.48
13027;BME280;6580;42.680;23.324;2023-04-16T04:03:15;94702.34;;;11.76;72.35
13027;BME280;6580;42.680;23.324;2023-04-16T04:06:05;94708.66;;;11.83;70.82
13027;BME280;6580;42.680;23.324;2023-04-16T04:08:54;94686.00;;;11.79;71.02
13027;BME280;6580;42.680;23.324;2023-04-16T04:11:39;94710.38;;;11.98;70.92
13027;BME280;6580;42.680;23.324;2023-04-16T04:14:25;94697.00;;;11.76;70.78
13027;BME280;6580;42.680;23.324;2023-04-16T04:17:10;94711.19;;;11.99;68.45
13027;BME280;6580;42.680;23.324;2023-04-16T04:19:55;94716.53;;;11.76;67.39
13027;BME280;6580;42.680;23.324;2023-04-16T04:22:41;94723.91;;;11.66;68.69
13027;BME280;6580;42.680;23.324;2023-04-16T04:25:27;94719.75;;;11.72;67.99
13027;BME280;6580;42.680;23.324;2023-04-16T04:28:13;94721.44;;;11.87;67.94
13027;BME280;6580;42.680;23.324;2023-04-16T04:30:59;94725.00;;;11.80;66.78
13027;BME280;6580;42.680;23.324;2023-04-16T04:33:45;94727.50;;;11.81;66.23
13027;BME280;6580;42.680;23.324;2023-04-16T04:36:30;94726.91;;;11.71;66.34
13027;BME280;6580;42.680;23.324;2023-04-16T04:39:16;94726.91;;;11.71;66.63
13027;BME280;6580;42.680;23.324;2023-04-16T04:42:05;94735.09;;;11.92;64.95
13027;BME280;6580;42.680;23.324;2023-04-16T04:44:50;94726.44;;;11.90;64.80
13027;BME280;6580;42.680;23.324;2023-04-16T04:47:36;94725.00;;;12.02;64.45
13027;BME280;6580;42.680;23.324;2023-04-16T04:50:21;94735.91;;;12.15;65.74
13027;BME280;6580;42.680;23.324;2023-04-16T04:53:10;94732.72;;;11.97;66.71
13027;BME280;6580;42.680;23.324;2023-04-16T04:55:57;94738.84;;;12.20;65.96
13027;BME280;6580;42.680;23.324;2023-04-16T04:58:44;94740.59;;;12.13;65.67
13027;BME280;6580;42.680;23.324;2023-04-16T05:01:30;94744.22;;;11.98;65.94
13027;BME280;6580;42.680;23.324;2023-04-16T05:04:16;94743.50;;;12.04;65.90
13027;BME280;6580;42.680;23.324;2023-04-16T05:07:05;94742.19;;;12.00;65.83
13027;BME280;6580;42.680;23.324;2023-04-16T05:09:50;94745.53;;;12.02;64.75
13027;BME280;6580;42.680;23.324;2023-04-16T05:12:36;94737.34;;;12.03;65.05
13027;BME280;6580;42.680;23.324;2023-04-16T05:15:26;94738.03;;;12.19;65.22
13027;BME280;6580;42.680;23.324;2023-04-16T05:18:11;94736.94;;;12.28;64.18
13027;BME280;6580;42.680;23.324;2023-04-16T05:20:56;94729.13;;;12.27;64.64
13027;BME280;6580;42.680;23.324;2023-04-16T05:23:42;94735.44;;;12.34;64.87
13027;BME280;6580;42.680;23.324;2023-04-16T05:26:27;94735.28;;;12.50;63.04
13027;BME280;6580;42.680;23.324;2023-04-16T05:29:14;94727.47;;;12.63;62.54
13027;BME280;6580;42.680;23.324;2023-04-16T05:32:01;94733.09;;;12.68;62.13
13027;BME280;6580;42.680;23.324;2023-04-16T05:34:47;94730.13;;;12.63;62.55
13027;BME280;6580;42.680;23.324;2023-04-16T05:37:32;94734.00;;;12.75;62.01
13027;BME280;6580;42.680;23.324;2023-04-16T05:40:19;94732.47;;;12.80;61.74
13027;BME280;6580;42.680;23.324;2023-04-16T05:43:04;94728.34;;;12.92;61.03
13027;BME280;6580;42.680;23.324;2023-04-16T05:45:50;94726.88;;;12.90;60.06
13027;BME280;6580;42.680;23.324;2023-04-16T05:48:38;94727.78;;;12.97;60.79
13027;BME280;6580;42.680;23.324;2023-04-16T05:51:23;94723.81;;;12.93;60.04
13027;BME280;6580;42.680;23.324;2023-04-16T05:54:10;94724.47;;;13.09;60.01
13027;BME280;6580;42.680;23.324;2023-04-16T05:56:57;94728.59;;;13.26;59.94
13027;BME280;6580;42.680;23.324;2023-04-16T05:59:43;94736.75;;;13.18;59.16
13027;BME280;6580;42.680;23.324;2023-04-16T06:02:30;94720.13;;;13.08;58.59
13027;BME280;6580;42.680;23.324;2023-04-16T06:05:17;94731.13;;;12.99;58.96
13027;BME280;6580;42.680;23.324;2023-04-16T06:08:03;94728.34;;;13.07;59.32
13027;BME280;6580;42.680;23.324;2023-04-16T06:10:48;94730.25;;;13.41;58.17
13027;BME280;6580;42.680;23.324;2023-04-16T06:13:33;94739.94;;;13.42;58.16
13027;BME280;6580;42.680;23.324;2023-04-16T06:16:19;94725.06;;;13.54;57.91
13027;BME280;6580;42.680;23.324;2023-04-16T06:19:04;94724.22;;;13.89;56.75
13027;BME280;6580;42.680;23.324;2023-04-16T06:21:51;94728.09;;;14.22;55.03
13027;BME280;6580;42.680;23.324;2023-04-16T06:24:37;94729.00;;;14.29;54.42
13027;BME280;6580;42.680;23.324;2023-04-16T06:27:24;94723.59;;;13.87;55.05
13027;BME280;6580;42.680;23.324;2023-04-16T06:30:11;94720.88;;;13.66;55.97
13027;BME280;6580;42.680;23.324;2023-04-16T06:32:59;94721.84;;;13.80;56.40
13027;BME280;6580;42.680;23.324;2023-04-16T06:35:44;94720.66;;;13.82;55.91
13027;BME280;6580;42.680;23.324;2023-04-16T06:38:31;94721.84;;;14.15;54.91
13027;BME280;6580;42.680;23.324;2023-04-16T06:41:16;94709.66;;;14.61;53.11
13027;BME280;6580;42.680;23.324;2023-04-16T06:44:02;94708.69;;;15.29;50.95
13027;BME280;6580;42.680;23.324;2023-04-16T06:46:47;94719.56;;;15.55;50.25
13027;BME280;6580;42.680;23.324;2023-04-16T06:49:33;94723.31;;;15.67;49.36
13027;BME280;6580;42.680;23.324;2023-04-16T06:52:18;94714.19;;;15.55;49.32
13027;BME280;6580;42.680;23.324;2023-04-16T06:55:06;94714.03;;;15.63;49.35
13027;BME280;6580;42.680;23.324;2023-04-16T06:57:52;94720.00;;;15.65;49.74
13027;BME280;6580;42.680;23.324;2023-04-16T07:00:37;94715.34;;;15.80;49.61
13027;BME280;6580;42.680;23.324;2023-04-16T07:03:23;94710.00;;;15.93;48.83
13027;BME280;6580;42.680;23.324;2023-04-16T07:06:09;94708.59;;;16.23;48.68
13027;BME280;6580;42.680;23.324;2023-04-16T07:08:54;94705.22;;;15.82;49.81
13027;BME280;6580;42.680;23.324;2023-04-16T07:11:41;94707.66;;;15.64;50.30
13027;BME280;6580;42.680;23.324;2023-04-16T07:14:27;94710.16;;;15.85;50.00
13027;BME280;6580;42.680;23.324;2023-04-16T07:17:12;94722.88;;;16.17;49.40
13027;BME280;6580;42.680;23.324;2023-04-16T07:19:58;94718.91;;;16.00;50.13
13027;BME280;6580;42.680;23.324;2023-04-16T07:22:43;94714.56;;;15.99;49.89
13027;BME280;6580;42.680;23.324;2023-04-16T07:25:28;94716.88;;;16.28;49.06
13027;BME280;6580;42.680;23.324;2023-04-16T07:28:16;94714.69;;;16.64;48.25
13027;BME280;6580;42.680;23.324;2023-04-16T07:31:01;94711.06;;;16.12;49.40
13027;BME280;6580;42.680;23.324;2023-04-16T07:33:47;94703.19;;;15.97;50.17
13027;BME280;6580;42.680;23.324;2023-04-16T07:36:32;94708.38;;;16.12;50.09
13027;BME280;6580;42.680;23.324;2023-04-16T07:39:18;94709.91;;;16.79;49.07
13027;BME280;6580;42.680;23.324;2023-04-16T07:42:03;94698.56;;;17.66;46.30
13027;BME280;6580;42.680;23.324;2023-04-16T07:44:50;94705.13;;;18.27;45.35
13027;BME280;6580;42.680;23.324;2023-04-16T07:47:35;94703.00;;;18.35;44.43
13027;BME280;6580;42.680;23.324;2023-04-16T07:50:20;94704.19;;;18.39;44.24
13027;BME280;6580;42.680;23.324;2023-04-16T07:53:06;94699.84;;;17.57;45.95
13027;BME280;6580;42.680;23.324;2023-04-16T07:55:51;94701.00;;;17.80;45.75
13027;BME280;6580;42.680;23.324;2023-04-16T07:58:37;94703.03;;;17.34;46.87
13027;BME280;6580;42.680;23.324;2023-04-16T08:01:23;94708.69;;;16.36;49.37
13027;BME280;6580;42.680;23.324;2023-04-16T08:04:09;94699.09;;;17.18;48.50
13027;BME280;6580;42.680;23.324;2023-04-16T08:06:54;94698.88;;;18.57;45.52
13027;BME280;6580;42.680;23.324;2023-04-16T08:09:47;94691.63;;;19.48;43.48
13027;BME280;6580;42.680;23.324;2023-04-16T08:12:34;94683.97;;;20.69;40.55
13027;BME280;6580;42.680;23.324;2023-04-16T08:15:19;94674.56;;;20.02;40.36
13027;BME280;6580;42.680;23.324;2023-04-16T08:18:06;94683.66;;;20.37;40.37
13027;BME280;6580;42.680;23.324;2023-04-16T08:20:55;94682.28;;;21.44;38.43
13027;BME280;6580;42.680;23.324;2023-04-16T08:23:41;94678.94;;;21.87;36.84
13027;BME280;6580;42.680;23.324;2023-04-16T08:26:29;94670.66;;;21.09;37.97
13027;BME280;6580;42.680;23.324;2023-04-16T08:29:14;94668.06;;;20.21;39.33
13027;BME280;6580;42.680;23.324;2023-04-16T08:32:03;94675.91;;;20.51;39.32
13027;BME280;6580;42.680;23.324;2023-04-16T08:34:51;94673.88;;;20.76;39.13
13027;BME280;6580;42.680;23.324;2023-04-16T08:37:36;94670.47;;;19.63;40.69
13027;BME280;6580;42.680;23.324;2023-04-16T08:40:22;94666.31;;;19.79;41.03
13027;BME280;6580;42.680;23.324;2023-04-16T08:43:09;94664.13;;;19.87;40.90
13027;BME280;6580;42.680;23.324;2023-04-16T08:45:57;94658.44;;;20.77;39.59
13027;BME280;6580;42.680;23.324;2023-04-16T08:48:44;94652.97;;;21.29;37.55
13027;BME280;6580;42.680;23.324;2023-04-16T08:51:34;94659.34;;;20.48;38.77
13027;BME280;6580;42.680;23.324;2023-04-16T08:54:30;94655.44;;;20.85;38.80
13027;BME280;6580;42.680;23.324;2023-04-16T08:57:18;94654.94;;;20.36;39.53
13027;BME280;6580;42.680;23.324;2023-04-16T09:00:05;94655.91;;;19.82;40.12
13027;BME280;6580;42.680;23.324;2023-04-16T09:02:53;94658.06;;;18.96;41.86
13027;BME280;6580;42.680;23.324;2023-04-16T09:05:39;94642.94;;;19.37;40.77
13027;BME280;6580;42.680;23.324;2023-04-16T09:08:28;94646.94;;;19.82;40.36
13027;BME280;6580;42.680;23.324;2023-04-16T09:11:16;94643.84;;;19.96;40.34
13027;BME280;6580;42.680;23.324;2023-04-16T09:14:02;94643.41;;;20.29;40.04
13027;BME280;6580;42.680;23.324;2023-04-16T09:16:48;94643.38;;;20.69;39.43
13027;BME280;6580;42.680;23.324;2023-04-16T09:19:37;94644.84;;;21.91;37.17
13027;BME280;6580;42.680;23.324;2023-04-16T09:22:23;94639.91;;;22.88;35.40
13027;BME280;6580;42.680;23.324;2023-04-16T09:25:10;94628.53;;;23.24;34.58
13027;BME280;6580;42.680;23.324;2023-04-16T09:27:55;94629.81;;;23.55;33.98
13027;BME280;6580;42.680;23.324;2023-04-16T09:30:41;94618.50;;;23.25;34.41
13027;BME280;6580;42.680;23.324;2023-04-16T09:33:26;94628.97;;;23.16;34.21
13027;BME280;6580;42.680;23.324;2023-04-16T09:36:12;94634.97;;;23.02;34.10
13027;BME280;6580;42.680;23.324;2023-04-16T09:38:58;94625.16;;;24.14;32.90
13027;BME280;6580;42.680;23.324;2023-04-16T09:41:45;94621.41;;;24.68;32.10
13027;BME280;6580;42.680;23.324;2023-04-16T09:44:34;94622.69;;;24.61;31.79
13027;BME280;6580;42.680;23.324;2023-04-16T09:47:21;94615.03;;;22.80;33.34
13027;BME280;6580;42.680;23.324;2023-04-16T09:50:07;94631.34;;;22.80;34.58
13027;BME280;6580;42.680;23.324;2023-04-16T09:52:53;94614.34;;;23.39;33.53
13027;BME280;6580;42.680;23.324;2023-04-16T09:55:38;94616.00;;;22.41;34.63
13027;BME280;6580;42.680;23.324;2023-04-16T09:58:25;94621.00;;;21.54;36.10
13027;BME280;6580;42.680;23.324;2023-04-16T10:01:11;94614.00;;;21.19;36.59
13027;BME280;6580;42.680;23.324;2023-04-16T10:03:57;94612.88;;;21.54;36.56
13027;BME280;6580;42.680;23.324;2023-04-16T10:06:42;94611.59;;;21.34;36.56
13027;BME280;6580;42.680;23.324;2023-04-16T10:09:31;94605.88;;;20.84;37.26
13027;BME280;6580;42.680;23.324;2023-04-16T10:12:16;94602.94;;;21.09;36.75
13027;BME280;6580;42.680;23.324;2023-04-16T10:15:04;94602.53;;;21.40;36.80
13027;BME280;6580;42.680;23.324;2023-04-16T10:17:50;94599.81;;;21.62;36.82
13027;BME280;6580;42.680;23.324;2023-04-16T10:20:35;94598.59;;;21.70;36.26
13027;BME280;6580;42.680;23.324;2023-04-16T10:23:21;94597.91;;;21.63;36.35
13027;BME280;6580;42.680;23.324;2023-04-16T10:26:07;94588.13;;;22.62;34.57
13027;BME280;6580;42.680;23.324;2023-04-16T10:28:53;94583.28;;;23.13;33.66
13027;BME280;6580;42.680;23.324;2023-04-16T10:31:41;94583.50;;;23.50;33.12
13027;BME280;6580;42.680;23.324;2023-04-16T10:34:26;94576.13;;;23.07;33.44
13027;BME280;6580;42.680;23.324;2023-04-16T10:37:14;94578.50;;;23.04;33.43
13027;BME280;6580;42.680;23.324;2023-04-16T10:40:21;94570.00;;;23.55;32.19
13027;BME280;6580;42.680;23.324;2023-04-16T10:43:06;94577.00;;;25.04;30.65
13027;BME280;6580;42.680;23.324;2023-04-16T10:45:52;94569.47;;;26.28;29.28
13027;BME280;6580;42.680;23.324;2023-04-16T10:48:41;94577.69;;;26.33;28.46
13027;BME280;6580;42.680;23.324;2023-04-16T10:51:28;94565.38;;;25.13;29.66
13027;BME280;6580;42.680;23.324;2023-04-16T10:54:22;94565.53;;;25.33;29.28
13027;BME280;6580;42.680;23.324;2023-04-16T10:57:09;94546.53;;;26.14;28.53
13027;BME280;6580;42.680;23.324;2023-04-16T10:59:55;94560.16;;;26.09;28.38
13027;BME280;6580;42.680;23.324;2023-04-16T11:02:42;94554.63;;;25.89;28.95
13027;BME280;6580;42.680;23.324;2023-04-16T11:05:43;94550.97;;;24.81;29.88
13027;BME280;6580;42.680;23.324;2023-04-16T11:08:29;94552.22;;;24.69;30.01
13027;BME280;6580;42.680;23.324;2023-04-16T11:11:15;94550.47;;;24.53;29.97
13027;BME280;6580;42.680;23.324;2023-04-16T11:14:03;94544.63;;;24.76;30.08
13027;BME280;6580;42.680;23.324;2023-04-16T11:16:49;94535.69;;;26.54;28.28
13027;BME280;6580;42.680;23.324;2023-04-16T11:19:34;94534.34;;;26.47;27.77
13027;BME280;6580;42.680;23.324;2023-04-16T11:22:21;94522.53;;;26.41;27.41
13027;BME280;6580;42.680;23.324;2023-04-16T11:25:07;94531.50;;;26.22;28.44
13027;BME280;6580;42.680;23.324;2023-04-16T11:27:52;94520.53;;;24.94;29.36
13027;BME280;6580;42.680;23.324;2023-04-16T11:30:38;94541.34;;;23.26;31.81
13027;BME280;6580;42.680;23.324;2023-04-16T11:33:24;94533.56;;;22.80;32.82
13027;BME280;6580;42.680;23.324;2023-04-16T11:36:09;94522.25;;;22.50;33.32
13027;BME280;6580;42.680;23.324;2023-04-16T11:39:01;94514.06;;;22.83;32.65
13027;BME280;6580;42.680;23.324;2023-04-16T11:41:49;94510.56;;;22.66;33.13
13027;BME280;6580;42.680;23.324;2023-04-16T11:44:35;94515.78;;;22.23;33.18
13027;BME280;6580;42.680;23.324;2023-04-16T11:47:21;94509.66;;;22.44;33.17
13027;BME280;6580;42.680;23.324;2023-04-16T11:50:18;94512.47;;;21.88;34.20
13027;BME280;6580;42.680;23.324;2023-04-16T11:53:04;94518.13;;;21.59;34.65
13027;BME280;6580;42.680;23.324;2023-04-16T11:55:51;94510.50;;;21.84;34.28
13027;BME280;6580;42.680;23.324;2023-04-16T11:58:36;94504.25;;;21.16;34.90
13027;BME280;6580;42.680;23.324;2023-04-16T12:01:22;94502.09;;;21.85;34.61
13027;BME280;6580;42.680;23.324;2023-04-16T12:04:07;94481.72;;;22.44;33.62
13027;BME280;6580;42.680;23.324;2023-04-16T12:07:09;94480.13;;;22.64;33.57
13027;BME280;6580;42.680;23.324;2023-04-16T12:10:04;94480.22;;;22.53;33.48
13027;BME280;6580;42.680;23.324;2023-04-16T12:12:51;94471.84;;;22.92;33.55
13027;BME280;6580;42.680;23.324;2023-04-16T12:15:44;94457.91;;;23.26;32.75
13027;BME280;6580;42.680;23.324;2023-04-16T12:18:30;94454.09;;;23.96;31.86
13027;BME280;6580;42.680;23.324;2023-04-16T12:21:15;94460.50;;;23.38;32.57
13027;BME280;6580;42.680;23.324;2023-04-16T12:24:01;94454.84;;;23.65;32.63
13027;BME280;6580;42.680;23.324;2023-04-16T12:26:50;94452.59;;;24.42;31.35
13027;BME280;6580;42.680;23.324;2023-04-16T12:29:40;94454.47;;;23.78;31.87
13027;BME280;6580;42.680;23.324;2023-04-16T12:32:25;94449.66;;;23.00;32.98
13027;BME280;6580;42.680;23.324;2023-04-16T12:35:10;94458.31;;;22.59;33.33
13027;BME280;6580;42.680;23.324;2023-04-16T12:37:56;94454.22;;;22.07;34.18
13027;BME280;6580;42.680;23.324;2023-04-16T12:40:41;94460.69;;;21.73;35.17
13027;BME280;6580;42.680;23.324;2023-04-16T12:43:26;94455.69;;;21.65;34.94
13027;BME280;6580;42.680;23.324;2023-04-16T12:46:13;94456.63;;;21.20;35.97
13027;BME280;6580;42.680;23.324;2023-04-16T12:48:59;94455.69;;;20.98;36.14
13027;BME280;6580;42.680;23.324;2023-04-16T12:51:45;94455.53;;;21.05;36.85
13027;BME280;6580;42.680;23.324;2023-04-16T12:54:31;94459.53;;;21.02;36.71
13027;BME280;6580;42.680;23.324;2023-04-16T12:57:16;94457.81;;;20.85;40.45
13027;BME280;6580;42.680;23.324;2023-04-16T13:00:02;94455.84;;;20.57;46.54
13027;BME280;6580;42.680;23.324;2023-04-16T13:02:50;94450.16;;;20.59;49.61
13027;BME280;6580;42.680;23.324;2023-04-16T13:05:36;94449.25;;;20.42;50.24
13027;BME280;6580;42.680;23.324;2023-04-16T13:08:21;94432.56;;;20.34;47.86
13027;BME280;6580;42.680;23.324;2023-04-16T13:11:07;94430.56;;;20.29;50.03
13027;BME280;6580;42.680;23.324;2023-04-16T13:13:52;94425.75;;;20.31;48.49
13027;BME280;6580;42.680;23.324;2023-04-16T13:16:37;94426.94;;;20.24;49.69
13027;BME280;6580;42.680;23.324;2023-04-16T13:19:24;94429.97;;;20.04;45.80
13027;BME280;6580;42.680;23.324;2023-04-16T13:22:09;94438.56;;;20.01;48.10
13027;BME280;6580;42.680;23.324;2023-04-16T13:24:55;94431.09;;;19.85;45.28
13027;BME280;6580;42.680;23.324;2023-04-16T13:27:41;94430.41;;;19.78;45.91
13027;BME280;6580;42.680;23.324;2023-04-16T13:30:26;94435.56;;;19.39;45.63
13027;BME280;6580;42.680;23.324;2023-04-16T13:33:12;94439.91;;;19.40;45.80
13027;BME280;6580;42.680;23.324;2023-04-16T13:35:59;94442.56;;;18.99;46.53
13027;BME280;6580;42.680;23.324;2023-04-16T13:38:44;94445.66;;;18.49;49.12
13027;BME280;6580;42.680;23.324;2023-04-16T13:41:30;94445.31;;;18.45;48.90
13027;BME280;6580;42.680;23.324;2023-04-16T13:44:15;94442.00;;;18.26;48.70
13027;BME280;6580;42.680;23.324;2023-04-16T13:47:01;94431.56;;;18.29;49.05
13027;BME280;6580;42.680;23.324;2023-04-16T13:49:46;94437.50;;;18.38;47.81
13027;BME280;6580;42.680;23.324;2023-04-16T13:52:33;94427.00;;;18.65;47.35
13027;BME280;6580;42.680;23.324;2023-04-16T13:55:19;94437.25;;;18.75;46.86
13027;BME280;6580;42.680;23.324;2023-04-16T13:58:04;94442.81;;;18.80;47.02
13027;BME280;6580;42.680;23.324;2023-04-16T14:00:50;94441.28;;;19.02;46.73
13027;BME280;6580;42.680;23.324;2023-04-16T14:03:35;94435.81;;;18.90;47.17
13027;BME280;6580;42.680;23.324;2023-04-16T14:06:22;94459.31;;;18.54;47.59
13027;BME280;6580;42.680;23.324;2023-04-16T14:09:08;94459.06;;;18.55;48.42
13027;BME280;6580;42.680;23.324;2023-04-16T14:11:54;94462.22;;;18.10;50.50
13027;BME280;6580;42.680;23.324;2023-04-16T14:14:40;94472.75;;;17.38;54.56
13027;BME280;6580;42.680;23.324;2023-04-16T14:17:25;94486.44;;;17.37;55.79
13027;BME280;6580;42.680;23.324;2023-04-16T14:20:12;94488.81;;;17.14;56.79
13027;BME280;6580;42.680;23.324;2023-04-16T14:22:57;94508.19;;;17.29;56.21
13027;BME280;6580;42.680;23.324;2023-04-16T14:25:44;94490.41;;;17.22;55.73
13027;BME280;6580;42.680;23.324;2023-04-16T14:28:29;94496.22;;;17.19;54.59
13027;BME280;6580;42.680;23.324;2023-04-16T14:31:15;94472.38;;;17.35;54.27
13027;BME280;6580;42.680;23.324;2023-04-16T14:34:01;94491.13;;;17.72;53.81
13027;BME280;6580;42.680;23.324;2023-04-16T14:36:47;94492.63;;;17.68;54.18
13027;BME280;6580;42.680;23.324;2023-04-16T14:39:35;94510.66;;;17.37;56.89
13027;BME280;6580;42.680;23.324;2023-04-16T14:42:23;94509.63;;;17.32;57.69